Time;durP1;ratioP1;P1;durP2;ratioP2;P2;SDS_P1;SDS_P2;PMS_P1;PMS_P2;Temp;Humidity;BMP_temperature;BMP_pressure;BME280_temperature;BME280_humidity;BME280_pressure;Samples;Min_cycle;Max_cycle;Signal;HPM_P1;HPM_P2
2022/04/28 00:00:16;;;;;;;;;;;;;;;7.27;96.82;99846.13;5072929;28;873;-55
2022/04/28 00:02:43;;;;;;;;;;;;;;;7.20;96.53;99848.81;5072842;28;858;-56
2022/04/28 00:05:10;;;;;;;;;;;;;;;7.23;96.89;99850.00;5072887;28;787;-55
2022/04/28 00:07:38;;;;;;;;;;;;;;;7.26;97.42;99850.06;5072687;28;1882;-55
2022/04/28 00:10:06;;;;;;;;;;;;;;;7.25;96.80;99853.19;5072706;28;885;-55
2022/04/28 00:12:34;;;;;;;;;;;;;;;7.27;97.82;99848.09;5072577;28;890;-54
2022/04/28 00:15:00;;;;;;;;;;;;;;;7.34;97.26;99839.91;5072680;28;830;-54
2022/04/28 00:17:27;;;;;;;;;;;;;;;7.33;97.37;99841.06;5072512;28;902;-54
2022/04/28 00:19:54;;;;;;;;;;;;;;;7.32;97.82;99845.78;5072627;28;794;-55
2022/04/28 00:22:21;;;;;;;;;;;;;;;7.31;97.66;99846.94;5072694;28;815;-55
2022/04/28 00:24:48;;;;;;;;;;;;;;;7.31;97.42;99843.41;5072315;28;905;-55
2022/04/28 00:27:15;;;;;;;;;;;;;;;7.35;97.83;99845.03;5072189;28;1971;-55
2022/04/28 00:29:42;;;;;;;;;;;;;;;7.30;97.70;99837.13;5072284;28;859;-53
2022/04/28 00:32:09;;;;;;;;;;;;;;;7.30;97.98;99837.13;5072373;28;869;-55
2022/04/28 00:34:35;;;;;;;;;;;;;;;7.35;98.04;99842.28;5072364;28;807;-54
2022/04/28 00:37:01;;;;;;;;;;;;;;;7.52;98.18;99837.31;5072187;28;838;-54
2022/04/28 00:39:28;;;;;;;;;;;;;;;7.54;97.61;99834.97;5072144;28;822;-56
2022/04/28 00:41:55;;;;;;;;;;;;;;;7.43;97.60;99834.09;5072100;28;850;-56
2022/04/28 00:44:22;;;;;;;;;;;;;;;7.44;98.06;99830.16;5072175;28;814;-56
2022/04/28 00:46:49;;;;;;;;;;;;;;;7.53;98.10;99825.94;5071972;28;1914;-55
2022/04/28 00:52:01;;;;;;;;;;;;;;;7.34;98.58;99829.72;5072012;28;720;-55
2022/04/28 00:54:28;;;;;;;;;;;;;;;7.31;98.41;99826.91;5071435;28;834;-56
2022/04/28 00:56:56;;;;;;;;;;;;;;;7.38;98.29;99826.19;5071977;28;806;-55
2022/04/28 00:59:24;;;;;;;;;;;;;;;7.42;98.72;99825.03;5071821;28;854;-56
2022/04/28 01:01:51;;;;;;;;;;;;;;;7.45;98.31;99824.28;5071857;28;886;-56
2022/04/28 01:04:18;;;;;;;;;;;;;;;7.43;98.42;99817.59;5071737;28;869;-55
2022/04/28 01:06:45;;;;;;;;;;;;;;;7.42;99.06;99813.25;5071707;28;1962;-54
2022/04/28 01:09:13;;;;;;;;;;;;;;;7.44;99.16;99819.16;5071728;28;822;-54
2022/04/28 01:11:40;;;;;;;;;;;;;;;7.45;99.25;99815.25;5071644;28;803;-54
2022/04/28 01:14:07;;;;;;;;;;;;;;;7.45;98.54;99823.50;5071646;28;858;-55
2022/04/28 01:16:34;;;;;;;;;;;;;;;7.40;98.94;99818.34;5071574;28;822;-56
2022/04/28 01:19:01;;;;;;;;;;;;;;;7.42;99.52;99816.78;5071670;28;882;-55
2022/04/28 01:21:29;;;;;;;;;;;;;;;7.38;99.35;99818.72;5071645;28;814;-55
2022/04/28 01:23:56;;;;;;;;;;;;;;;7.39;99.61;99816.78;5053654;28;897;-54
2022/04/28 01:26:23;;;;;;;;;;;;;;;7.32;99.17;99806.50;5071410;28;1218;-53
2022/04/28 01:28:49;;;;;;;;;;;;;;;7.22;99.89;99816.25;5071433;28;1913;-54
2022/04/28 01:31:16;;;;;;;;;;;;;;;7.19;99.77;99828.00;5071320;28;942;-53
2022/04/28 01:33:43;;;;;;;;;;;;;;;7.19;100.00;99819.75;5071567;28;826;-54
2022/04/28 01:36:10;;;;;;;;;;;;;;;7.23;100.00;99825.28;5071429;28;1638;-54
2022/04/28 01:38:37;;;;;;;;;;;;;;;7.14;99.46;99820.88;5071460;28;861;-54
2022/04/28 01:41:04;;;;;;;;;;;;;;;7.06;99.73;99822.00;5071322;28;814;-55
2022/04/28 01:43:31;;;;;;;;;;;;;;;7.01;99.89;99816.81;5071414;28;869;-54
2022/04/28 01:45:58;;;;;;;;;;;;;;;6.93;100.00;99818.72;5071395;28;861;-54
2022/04/28 01:48:25;;;;;;;;;;;;;;;6.94;100.00;99819.50;5071221;28;1894;-54
2022/04/28 01:56:24;;;;;;;;;;;;;;;6.96;100.00;99814.44;5071611;28;672;-54
2022/04/28 01:58:51;;;;;;;;;;;;;;;6.97;100.00;99816.00;5071134;28;914;-53
2022/04/28 02:01:18;;;;;;;;;;;;;;;6.96;100.00;99822.69;5071282;28;881;-55
2022/04/28 02:03:45;;;;;;;;;;;;;;;6.93;100.00;99817.91;5071741;28;810;-54
2022/04/28 02:06:11;;;;;;;;;;;;;;;6.94;100.00;99819.50;5075124;28;916;-54
2022/04/28 02:08:39;;;;;;;;;;;;;;;6.95;100.00;99821.88;5075146;28;1889;-54
2022/04/28 02:11:07;;;;;;;;;;;;;;;7.01;100.00;99827.03;5075021;28;866;-54
2022/04/28 02:13:34;;;;;;;;;;;;;;;7.04;100.00;99829.84;5074977;28;934;-54
2022/04/28 02:16:00;;;;;;;;;;;;;;;7.06;100.00;99826.69;5074949;28;850;-54
2022/04/28 02:18:27;;;;;;;;;;;;;;;7.08;100.00;99829.84;5074958;28;842;-54
2022/04/28 02:20:54;;;;;;;;;;;;;;;7.05;100.00;99822.38;5074899;28;854;-54
2022/04/28 02:23:20;;;;;;;;;;;;;;;7.07;100.00;99823.56;5074870;28;874;-55
2022/04/28 02:25:47;;;;;;;;;;;;;;;7.12;100.00;99825.19;5074697;28;1266;-55
2022/04/28 02:28:14;;;;;;;;;;;;;;;7.13;100.00;99819.31;5074730;28;1988;-55
2022/04/28 02:30:40;;;;;;;;;;;;;;;7.09;100.00;99817.69;5074728;28;976;-54
2022/04/28 02:33:09;;;;;;;;;;;;;;;7.20;100.00;99821.31;5074841;28;814;-55
2022/04/28 02:35:37;;;;;;;;;;;;;;;7.26;100.00;99819.81;5074527;28;826;-54
2022/04/28 02:38:04;;;;;;;;;;;;;;;7.27;100.00;99815.09;5074449;28;969;-55
2022/04/28 02:40:31;;;;;;;;;;;;;;;7.31;100.00;99816.69;5074321;28;1053;-55
2022/04/28 02:42:58;;;;;;;;;;;;;;;7.35;100.00;99817.53;5074470;28;799;-55
2022/04/28 02:45:25;;;;;;;;;;;;;;;7.25;100.00;99812.72;5074456;28;826;-56
2022/04/28 02:47:52;;;;;;;;;;;;;;;7.35;100.00;99820.28;5074322;28;1951;-55
2022/04/28 02:50:21;;;;;;;;;;;;;;;7.37;100.00;99822.66;5074168;28;882;-53
2022/04/28 02:52:51;;;;;;;;;;;;;;;7.31;100.00;99827.69;5074177;28;902;-54
2022/04/28 02:55:18;;;;;;;;;;;;;;;7.25;100.00;99820.19;5074290;28;807;-54
2022/04/28 02:57:45;;;;;;;;;;;;;;;7.28;100.00;99817.47;5074096;28;914;-54
2022/04/28 03:00:12;;;;;;;;;;;;;;;7.19;100.00;99825.25;5056344;28;1563;-55
2022/04/28 03:02:39;;;;;;;;;;;;;;;7.37;100.00;99814.41;5074082;28;869;-55
2022/04/28 03:05:05;;;;;;;;;;;;;;;7.57;100.00;99824.00;5074075;28;819;-54
2022/04/28 03:13:13;;;;;;;;;;;;;;;7.38;100.00;99824.22;5074230;28;616;-54
2022/04/28 03:15:39;;;;;;;;;;;;;;;7.38;100.00;99826.19;5073370;28;813;-54
2022/04/28 03:18:06;;;;;;;;;;;;;;;7.43;100.00;99823.88;5073874;28;810;-55
2022/04/28 03:20:33;;;;;;;;;;;;;;;7.39;100.00;99825.81;5073695;28;891;-54
2022/04/28 03:23:00;;;;;;;;;;;;;;;7.42;100.00;99819.53;5073826;28;814;-54
2022/04/28 03:25:27;;;;;;;;;;;;;;;7.39;100.00;99817.56;5073700;28;961;-56
2022/04/28 03:27:56;;;;;;;;;;;;;;;7.40;100.00;99819.13;5073366;28;1982;-55
2022/04/28 03:30:23;;;;;;;;;;;;;;;7.49;100.00;99832.56;5073537;28;931;-55
2022/04/28 03:32:50;;;;;;;;;;;;;;;7.60;100.00;99827.94;5073835;28;945;-54
2022/04/28 03:35:16;;;;;;;;;;;;;;;7.73;100.00;99834.72;5073497;28;794;-55
2022/04/28 03:37:47;;;;;;;;;;;;;;;7.86;100.00;99835.19;5073417;28;951;-54
2022/04/28 03:40:14;;;;;;;;;;;;;;;7.95;100.00;99835.63;5073389;28;869;-55
2022/04/28 03:42:39;;;;;;;;;;;;;;;8.08;100.00;99847.13;5073230;28;921;-54
2022/04/28 03:45:07;;;;;;;;;;;;;;;8.20;100.00;99848.78;5073399;28;861;-55
2022/04/28 03:47:35;;;;;;;;;;;;;;;8.26;100.00;99855.50;5073247;28;1936;-56
2022/04/28 03:50:03;;;;;;;;;;;;;;;8.24;100.00;99855.09;5073223;28;845;-55
2022/04/28 03:52:30;;;;;;;;;;;;;;;8.27;100.00;99848.81;5055328;28;1477;-55
2022/04/28 03:54:57;;;;;;;;;;;;;;;8.38;100.00;99851.59;5073802;28;916;-56
2022/04/28 03:57:24;;;;;;;;;;;;;;;8.53;100.00;99852.50;5073204;28;830;-54
2022/04/28 03:59:51;;;;;;;;;;;;;;;8.71;100.00;99856.13;5073533;28;787;-55
2022/04/28 04:02:17;;;;;;;;;;;;;;;8.86;100.00;99853.41;5073260;28;794;-54
2022/04/28 04:04:44;;;;;;;;;;;;;;;9.09;100.00;99856.63;5072932;28;897;-54
2022/04/28 04:07:12;;;;;;;;;;;;;;;9.40;100.00;99857.81;5072718;28;1915;-55
2022/04/28 04:09:38;;;;;;;;;;;;;;;9.58;100.00;99860.59;5072707;28;1361;-56
2022/04/28 04:12:05;;;;;;;;;;;;;;;9.65;100.00;99857.03;5072677;28;847;-54
2022/04/28 04:14:32;;;;;;;;;;;;;;;9.73;100.00;99858.63;5072659;28;814;-55
2022/04/28 04:16:59;;;;;;;;;;;;;;;9.82;100.00;99861.75;5072954;28;811;-55
2022/04/28 04:19:26;;;;;;;;;;;;;;;9.93;100.00;99864.50;5072597;28;877;-56
2022/04/28 04:21:53;;;;;;;;;;;;;;;10.05;100.00;99862.50;5072600;28;902;-56
2022/04/28 04:24:20;;;;;;;;;;;;;;;10.18;100.00;99867.22;5072641;28;923;-55
2022/04/28 04:26:47;;;;;;;;;;;;;;;10.38;100.00;99866.81;5072348;28;1165;-54
2022/04/28 04:29:14;;;;;;;;;;;;;;;10.57;100.00;99866.34;5071568;28;1937;-56
2022/04/28 04:34:24;;;;;;;;;;;;;;;11.14;98.22;99876.34;5072347;28;676;-54
2022/04/28 04:36:51;;;;;;;;;;;;;;;11.27;97.44;99873.13;5072473;28;893;-53
2022/04/28 04:39:18;;;;;;;;;;;;;;;11.40;96.61;99880.50;5072227;28;893;-54
2022/04/28 04:41:45;;;;;;;;;;;;;;;11.61;96.40;99876.03;5072185;28;874;-55
2022/04/28 04:44:14;;;;;;;;;;;;;;;11.82;94.98;99889.69;5072131;28;810;-55
2022/04/28 04:46:41;;;;;;;;;;;;;;;12.04;94.49;99882.00;5072116;28;866;-55
2022/04/28 04:49:08;;;;;;;;;;;;;;;12.31;93.43;99877.75;5071956;28;1878;-54
2022/04/28 04:51:34;;;;;;;;;;;;;;;12.53;92.73;99879.09;5072024;28;834;-55
2022/04/28 04:54:02;;;;;;;;;;;;;;;12.70;91.78;99879.31;5071936;28;861;-54
2022/04/28 04:56:28;;;;;;;;;;;;;;;12.88;90.80;99888.97;5071969;28;806;-55
2022/04/28 04:58:54;;;;;;;;;;;;;;;13.15;89.72;99881.88;5071825;28;893;-54
2022/04/28 05:01:22;;;;;;;;;;;;;;;13.40;88.80;99885.13;5071891;28;814;-55
2022/04/28 05:03:48;;;;;;;;;;;;;;;13.69;85.78;99885.44;5071805;28;834;-55
2022/04/28 05:06:15;;;;;;;;;;;;;;;13.88;84.74;99885.94;5071740;28;876;-55
2022/04/28 05:08:42;;;;;;;;;;;;;;;13.91;84.37;99887.84;5071706;28;1881;-56
2022/04/28 05:11:09;;;;;;;;;;;;;;;13.91;83.17;99892.63;5071777;28;813;-54
2022/04/28 05:13:36;;;;;;;;;;;;;;;13.88;81.50;99895.03;5071760;28;864;-55
2022/04/28 05:16:03;;;;;;;;;;;;;;;13.90;79.77;99889.06;5071703;28;814;-53
2022/04/28 05:18:30;;;;;;;;;;;;;;;13.90;78.50;99891.84;5071674;28;846;-52
2022/04/28 05:20:57;;;;;;;;;;;;;;;14.12;78.00;99897.03;5071731;28;877;-56
2022/04/28 05:23:24;;;;;;;;;;;;;;;14.55;75.63;99901.78;5071541;28;893;-54
2022/04/28 05:25:50;;;;;;;;;;;;;;;14.98;74.41;99904.53;5071605;28;1299;-54
2022/04/28 05:28:16;;;;;;;;;;;;;;;15.38;72.33;99903.63;5071333;28;1910;-55
2022/04/28 05:30:43;;;;;;;;;;;;;;;16.19;70.25;99902.88;5071540;28;901;-55
2022/04/28 05:33:10;;;;;;;;;;;;;;;17.82;65.50;99891.31;5071518;28;818;-55
2022/04/28 05:35:38;;;;;;;;;;;;;;;19.22;59.84;99901.13;5071441;28;830;-56
2022/04/28 05:38:04;;;;;;;;;;;;;;;20.26;55.94;99899.72;5071433;28;865;-55
2022/04/28 05:40:31;;;;;;;;;;;;;;;20.83;52.61;99890.81;5053207;28;1482;-56
2022/04/28 05:45:43;;;;;;;;;;;;;;;22.01;49.92;99887.19;5071718;28;605;-55
2022/04/28 05:48:10;;;;;;;;;;;;;;;22.54;47.86;99892.09;5071200;28;1968;-56
2022/04/28 05:50:37;;;;;;;;;;;;;;;22.82;46.94;99895.44;5071309;28;845;-57
2022/04/28 05:53:04;;;;;;;;;;;;;;;22.90;45.76;99886.59;5071230;28;858;-56
2022/04/28 05:55:31;;;;;;;;;;;;;;;23.07;45.24;99886.91;5071252;28;874;-56
2022/04/28 05:57:59;;;;;;;;;;;;;;;23.44;44.33;99893.66;5071632;28;782;-55
2022/04/28 06:00:26;;;;;;;;;;;;;;;23.55;43.52;99895.09;5071181;28;845;-55
2022/04/28 06:02:53;;;;;;;;;;;;;;;23.54;43.28;99896.38;5071294;28;945;-54
2022/04/28 06:05:21;;;;;;;;;;;;;;;23.99;42.36;99899.84;5071134;28;858;-55
2022/04/28 06:07:47;;;;;;;;;;;;;;;23.89;42.34;99895.59;5071254;28;1947;-55
2022/04/28 06:10:14;;;;;;;;;;;;;;;23.84;41.64;99902.72;5071115;28;818;-56
2022/04/28 06:12:41;;;;;;;;;;;;;;;23.71;42.34;99899.44;5071142;28;861;-56
2022/04/28 06:15:09;;;;;;;;;;;;;;;23.88;42.67;99903.28;5053166;28;1259;-56
2022/04/28 06:17:35;;;;;;;;;;;;;;;24.01;42.71;99900.91;5071029;28;1144;-56
2022/04/28 06:20:01;;;;;;;;;;;;;;;24.56;42.01;99896.44;5071090;28;1060;-56
2022/04/28 06:22:28;;;;;;;;;;;;;;;24.92;40.65;99896.25;5053322;28;842;-54
2022/04/28 06:24:55;;;;;;;;;;;;;;;25.00;41.06;99905.84;5071267;28;939;-57
2022/04/28 06:27:22;;;;;;;;;;;;;;;24.98;41.07;99906.34;5070621;28;1906;-56
2022/04/28 06:29:49;;;;;;;;;;;;;;;25.13;40.87;99909.03;5070976;28;893;-57
2022/04/28 06:32:16;;;;;;;;;;;;;;;25.06;40.34;99906.66;5070876;28;1113;-56
2022/04/28 06:34:46;;;;;;;;;;;;;;;25.53;39.43;99906.53;5070810;28;783;-56
2022/04/28 06:37:16;;;;;;;;;;;;;;;25.70;40.10;99912.31;5071194;28;854;-56
2022/04/28 06:39:43;;;;;;;;;;;;;;;25.67;38.55;99908.44;5070794;28;865;-55
2022/04/28 06:42:10;;;;;;;;;;;;;;;25.75;39.80;99909.50;5070836;28;795;-55
2022/04/28 06:44:37;;;;;;;;;;;;;;;26.35;38.33;99914.44;5070828;28;790;-56
2022/04/28 06:47:05;;;;;;;;;;;;;;;26.86;37.09;99906.84;5070593;28;1924;-55
2022/04/28 06:49:33;;;;;;;;;;;;;;;26.88;37.21;99904.28;5070744;28;893;-55
2022/04/28 06:52:00;;;;;;;;;;;;;;;26.89;37.42;99908.69;5073058;28;810;-56
2022/04/28 06:54:27;;;;;;;;;;;;;;;27.17;36.40;99914.38;5074251;28;1124;-56
2022/04/28 06:56:54;;;;;;;;;;;;;;;27.62;34.47;99913.59;5074238;28;870;-56
2022/04/28 06:59:21;;;;;;;;;;;;;;;27.99;34.60;99912.47;5074193;28;885;-56
2022/04/28 07:01:48;;;;;;;;;;;;;;;27.90;34.16;99922.81;5074083;28;917;-56
2022/04/28 07:04:15;;;;;;;;;;;;;;;27.99;34.36;99918.94;5074068;28;826;-56
2022/04/28 07:06:42;;;;;;;;;;;;;;;28.32;33.60;99925.03;5073946;28;933;-55
2022/04/28 07:09:08;;;;;;;;;;;;;;;28.59;33.80;99926.97;5073991;28;1886;-56
2022/04/28 07:11:34;;;;;;;;;;;;;;;28.65;33.56;99921.25;5073966;28;806;-56
2022/04/28 07:14:01;;;;;;;;;;;;;;;28.45;33.79;99925.97;5073918;28;865;-56
2022/04/28 07:16:28;;;;;;;;;;;;;;;27.76;34.55;99925.94;5073910;28;546;-56
2022/04/28 07:18:55;;;;;;;;;;;;;;;27.48;34.32;99923.91;5073834;28;810;-56
2022/04/28 07:21:21;;;;;;;;;;;;;;;27.01;34.71;99924.44;5073757;28;798;-56
2022/04/28 07:23:48;;;;;;;;;;;;;;;26.93;34.69;99929.06;5073682;28;882;-55
2022/04/28 07:26:15;;;;;;;;;;;;;;;26.99;34.29;99932.69;5073716;28;1354;-56
2022/04/28 07:28:42;;;;;;;;;;;;;;;26.91;35.30;99928.78;5073534;28;1914;-56
2022/04/28 07:31:08;;;;;;;;;;;;;;;26.92;33.84;99924.66;5073935;28;818;-55
2022/04/28 07:33:35;;;;;;;;;;;;;;;26.88;34.73;99930.59;5073518;28;900;-56
2022/04/28 07:36:03;;;;;;;;;;;;;;;26.93;34.89;99931.09;5073472;28;893;-55
2022/04/28 07:38:29;;;;;;;;;;;;;;;26.96;34.77;99930.84;5073468;28;814;-55
2022/04/28 07:40:56;;;;;;;;;;;;;;;27.47;34.01;99930.91;5073332;28;927;-55
2022/04/28 07:43:25;;;;;;;;;;;;;;;27.38;34.17;99925.50;5073214;28;977;-55
2022/04/28 07:45:52;;;;;;;;;;;;;;;26.96;33.37;99925.19;5073267;28;881;-54
2022/04/28 07:48:18;;;;;;;;;;;;;;;26.87;33.92;99931.09;5073211;28;1937;-55
2022/04/28 07:50:44;;;;;;;;;;;;;;;26.66;35.05;99931.31;5073177;28;810;-55
2022/04/28 07:53:11;;;;;;;;;;;;;;;26.85;35.10;99931.63;5073221;28;849;-56
2022/04/28 07:55:38;;;;;;;;;;;;;;;27.19;34.64;99925.97;5073109;28;874;-55
2022/04/28 07:58:05;;;;;;;;;;;;;;;27.19;32.43;99933.72;5073092;28;842;-56
2022/04/28 08:00:32;;;;;;;;;;;;;;;27.25;33.91;99931.69;5072999;28;794;-56
2022/04/28 08:02:59;;;;;;;;;;;;;;;27.25;32.86;99935.28;5072784;28;881;-55
2022/04/28 08:05:25;;;;;;;;;;;;;;;26.70;32.92;99945.25;5072852;28;953;-57
2022/04/28 08:07:52;;;;;;;;;;;;;;;26.27;34.48;99948.16;5072772;28;2232;-53
2022/04/28 08:10:19;;;;;;;;;;;;;;;26.31;33.80;99948.69;5072746;28;922;-56
2022/04/28 08:12:45;;;;;;;;;;;;;;;26.59;33.56;99956.56;5073003;28;958;-53
2022/04/28 08:15:12;;;;;;;;;;;;;;;26.30;33.58;99954.88;5072685;28;854;-55
2022/04/28 08:17:39;;;;;;;;;;;;;;;26.42;34.18;99953.63;5072678;28;795;-56
2022/04/28 08:20:06;;;;;;;;;;;;;;;26.78;33.76;99948.34;5072495;28;901;-56
2022/04/28 08:22:33;;;;;;;;;;;;;;;26.55;31.83;99953.16;5073088;28;1029;-56
2022/04/28 08:25:02;;;;;;;;;;;;;;;26.43;33.09;99949.50;5072528;28;984;-56
2022/04/28 08:27:28;;;;;;;;;;;;;;;26.61;33.39;99959.66;5071968;28;1910;-55
2022/04/28 08:29:55;;;;;;;;;;;;;;;26.83;32.41;99953.25;5072425;28;838;-55
2022/04/28 08:32:22;;;;;;;;;;;;;;;26.51;32.67;99955.47;5072304;28;885;-56
2022/04/28 08:34:49;;;;;;;;;;;;;;;26.32;32.64;99957.97;5072389;28;791;-56
2022/04/28 08:37:16;;;;;;;;;;;;;;;26.47;33.16;99950.03;5072186;28;859;-55
2022/04/28 08:39:43;;;;;;;;;;;;;;;26.26;33.16;99958.69;5072229;28;874;-56
2022/04/28 08:42:11;;;;;;;;;;;;;;;26.14;33.59;99957.13;5072160;28;933;-56
2022/04/28 08:44:39;;;;;;;;;;;;;;;25.99;33.61;99953.66;5072104;28;874;-55
2022/04/28 08:47:06;;;;;;;;;;;;;;;25.87;34.95;99958.47;5072041;28;1953;-56
2022/04/28 08:49:33;;;;;;;;;;;;;;;26.00;33.37;99955.25;5072027;28;858;-56
2022/04/28 08:51:59;;;;;;;;;;;;;;;25.77;34.09;99962.78;5071970;28;893;-56
2022/04/28 08:54:28;;;;;;;;;;;;;;;25.47;34.40;99948.94;5071971;28;848;-56
2022/04/28 08:56:55;;;;;;;;;;;;;;;25.14;34.08;99963.56;5071971;28;858;-56
2022/04/28 08:59:21;;;;;;;;;;;;;;;25.30;35.18;99956.50;5072059;28;830;-56
2022/04/28 09:01:50;;;;;;;;;;;;;;;25.52;34.89;99961.56;5071918;28;861;-55
2022/04/28 09:04:22;;;;;;;;;;;;;;;25.31;33.77;99958.09;5071679;28;1130;-55
2022/04/28 09:06:50;;;;;;;;;;;;;;;25.38;34.98;99963.28;5072292;28;751;-55
2022/04/28 09:09:18;;;;;;;;;;;;;;;25.47;35.24;99966.69;5071792;28;1953;-56
2022/04/28 09:11:45;;;;;;;;;;;;;;;25.24;36.04;99964.94;5053796;28;854;-55
2022/04/28 09:14:20;;;;;;;;;;;;;;;25.30;36.27;99965.78;5071195;28;832;-55
2022/04/28 09:16:48;;;;;;;;;;;;;;;25.23;34.72;99957.75;5071612;28;976;-55
2022/04/28 09:19:17;;;;;;;;;;;;;;;25.03;34.64;99965.00;5071639;28;844;-56
2022/04/28 09:21:43;;;;;;;;;;;;;;;24.64;34.04;99959.72;5071814;28;863;-56
2022/04/28 09:24:10;;;;;;;;;;;;;;;24.70;35.23;99953.34;5071631;28;1356;-56
2022/04/28 09:26:38;;;;;;;;;;;;;;;24.68;35.57;99958.72;5071336;28;1435;-55
2022/04/28 09:29:06;;;;;;;;;;;;;;;24.74;37.56;99954.66;5071497;28;1921;-56
2022/04/28 09:31:37;;;;;;;;;;;;;;;24.83;35.45;99948.84;5071388;28;1083;-55
2022/04/28 09:34:05;;;;;;;;;;;;;;;24.42;35.77;99965.06;5071437;28;881;-56
2022/04/28 09:36:31;;;;;;;;;;;;;;;24.21;36.87;99958.63;5071421;28;870;-56
2022/04/28 09:38:58;;;;;;;;;;;;;;;23.99;35.58;99959.88;5071468;28;799;-57
2022/04/28 09:44:12;;;;;;;;;;;;;;;24.04;36.73;99955.59;5071738;28;688;-56
2022/04/28 09:46:45;;;;;;;;;;;;;;;24.02;37.84;99958.13;5071350;28;921;-56
2022/04/28 09:49:12;;;;;;;;;;;;;;;23.92;36.99;99960.31;5071286;28;1955;-55
2022/04/28 09:51:39;;;;;;;;;;;;;;;23.75;36.63;99959.25;5071386;28;855;-55
2022/04/28 09:54:11;;;;;;;;;;;;;;;23.68;37.11;99951.19;5071400;28;782;-55
2022/04/28 09:56:38;;;;;;;;;;;;;;;23.80;37.59;99956.53;5071340;28;822;-54
2022/04/28 10:33:46;;;;;;;;;;;;;;;24.33;36.60;99936.97;5034895;28;636;-56
2022/04/28 10:36:16;;;;;;;;;;;;;;;24.29;37.63;99947.72;5033446;28;849;-55
2022/04/28 10:39:03;;;;;;;;;;;;;;;24.49;38.51;99935.63;5034755;28;799;-55
2022/04/28 10:41:30;;;;;;;;;;;;;;;24.31;38.21;99937.47;5034773;28;889;-54
2022/04/28 10:43:57;;;;;;;;;;;;;;;23.98;35.32;99946.25;5034538;28;933;-54
2022/04/28 10:46:27;;;;;;;;;;;;;;;23.99;36.28;99942.19;5034628;28;798;-56
2022/04/28 10:48:55;;;;;;;;;;;;;;;24.44;37.16;99948.41;5034311;28;1898;-55
2022/04/28 10:51:22;;;;;;;;;;;;;;;24.70;35.62;99954.09;5033355;28;783;-55
2022/04/28 10:54:09;;;;;;;;;;;;;;;24.51;33.89;99945.16;5034410;28;794;-55
2022/04/28 10:56:46;;;;;;;;;;;;;;;24.42;34.40;99945.28;5034197;28;930;-55
2022/04/28 10:59:37;;;;;;;;;;;;;;;24.25;35.83;99947.91;5034906;28;794;-55
2022/04/28 11:02:13;;;;;;;;;;;;;;;24.64;34.07;99948.41;5034201;28;854;-56
2022/04/28 11:04:44;;;;;;;;;;;;;;;25.02;35.21;99943.63;5034184;28;827;-55
2022/04/28 11:07:14;;;;;;;;;;;;;;;25.19;36.12;99948.69;5034070;28;1951;-55
2022/04/28 11:09:42;;;;;;;;;;;;;;;25.11;35.21;99948.34;5034439;28;870;-56
2022/04/28 11:12:32;;;;;;;;;;;;;;;24.98;34.84;99940.25;5034297;28;796;-55
2022/04/28 11:15:03;;;;;;;;;;;;;;;25.10;35.87;99937.56;5028910;28;1153;-55
2022/04/28 11:17:32;;;;;;;;;;;;;;;24.94;34.76;99933.28;5033949;28;976;-55
2022/04/28 11:20:04;;;;;;;;;;;;;;;24.58;33.97;99943.94;5033938;28;853;-56
2022/04/28 11:22:30;;;;;;;;;;;;;;;24.63;35.42;99931.94;5033900;28;870;-55
2022/04/28 11:25:02;;;;;;;;;;;;;;;24.96;34.44;99937.16;5033788;28;901;-55
2022/04/28 11:27:28;;;;;;;;;;;;;;;24.86;33.83;99938.63;5069865;28;1978;-56
2022/04/28 11:29:56;;;;;;;;;;;;;;;24.91;35.22;99935.06;5073723;28;849;-55
2022/04/28 11:32:23;;;;;;;;;;;;;;;24.89;35.32;99946.09;5073587;28;949;-56
2022/04/28 11:34:50;;;;;;;;;;;;;;;24.92;34.61;99944.31;5073572;28;1069;-55
2022/04/28 11:37:18;;;;;;;;;;;;;;;24.90;35.51;99936.34;5073039;28;854;-55
2022/04/28 11:39:46;;;;;;;;;;;;;;;24.94;35.92;99939.69;5073459;28;938;-55
2022/04/28 11:42:13;;;;;;;;;;;;;;;25.15;34.00;99948.13;5073378;28;937;-56
2022/04/28 11:44:47;;;;;;;;;;;;;;;25.17;35.11;99946.34;5073387;28;782;-56
2022/04/28 11:47:14;;;;;;;;;;;;;;;24.98;34.62;99933.84;5073323;28;1890;-56
2022/04/28 11:49:41;;;;;;;;;;;;;;;24.97;35.27;99932.28;5073491;28;834;-56
2022/04/28 11:52:17;;;;;;;;;;;;;;;25.33;34.02;99938.53;5073251;28;1195;-57
2022/04/28 11:54:44;;;;;;;;;;;;;;;25.48;33.22;99922.22;5073115;28;837;-56
2022/04/28 11:57:11;;;;;;;;;;;;;;;25.46;33.23;99922.69;5055200;28;892;-56
2022/04/28 11:59:39;;;;;;;;;;;;;;;25.66;34.91;99924.63;5073053;28;914;-56
2022/04/28 12:02:05;;;;;;;;;;;;;;;25.70;32.91;99917.97;5073092;28;861;-56
2022/04/28 12:04:39;;;;;;;;;;;;;;;25.54;32.13;99916.56;5072977;28;932;-56
2022/04/28 12:07:17;;;;;;;;;;;;;;;25.56;34.20;99914.81;5072996;28;833;-56
2022/04/28 12:15:15;;;;;;;;;;;;;;;25.41;35.63;99917.00;5073112;28;734;-55
2022/04/28 12:20:49;;;;;;;;;;;;;;;25.54;35.60;99905.25;5073013;28;675;-56
2022/04/28 12:23:36;;;;;;;;;;;;;;;25.36;34.44;99912.84;5072627;28;817;-56
2022/04/28 12:26:06;;;;;;;;;;;;;;;25.24;34.36;99905.53;5072128;28;1681;-56
2022/04/28 12:28:34;;;;;;;;;;;;;;;25.33;36.05;99899.72;5072423;28;1918;-56
2022/04/28 12:34:13;;;;;;;;;;;;;;;25.39;35.73;99891.25;5072537;28;1002;-54
2022/04/28 12:36:53;;;;;;;;;;;;;;;25.56;36.22;99899.88;5072270;28;846;-56
2022/04/28 12:39:21;;;;;;;;;;;;;;;25.45;35.52;99904.19;5072557;28;861;-56
2022/04/28 12:41:52;;;;;;;;;;;;;;;25.23;34.54;99898.34;5072548;28;853;-56
2022/04/28 12:44:19;;;;;;;;;;;;;;;25.19;34.68;99892.88;5072184;28;963;-56
2022/04/28 12:46:46;;;;;;;;;;;;;;;25.05;33.88;99896.66;5072233;28;793;-56
2022/04/28 12:49:17;;;;;;;;;;;;;;;24.80;34.35;99895.38;5071252;28;1956;-56
2022/04/28 12:51:47;;;;;;;;;;;;;;;24.80;34.60;99906.69;5072024;28;954;-55
2022/04/28 12:54:16;;;;;;;;;;;;;;;24.86;33.71;99905.47;5071969;28;881;-56
2022/04/28 12:56:44;;;;;;;;;;;;;;;25.31;35.73;99902.28;5071962;28;905;-56
2022/04/28 12:59:13;;;;;;;;;;;;;;;25.31;34.48;99905.09;5071858;28;986;-56
2022/04/28 13:01:40;;;;;;;;;;;;;;;25.36;33.29;99900.75;5071869;28;949;-57
2022/04/28 13:04:09;;;;;;;;;;;;;;;25.12;33.56;99890.53;5071910;28;825;-56
2022/04/28 13:06:36;;;;;;;;;;;;;;;24.91;34.22;99898.31;5072102;28;874;-56
2022/04/28 13:09:04;;;;;;;;;;;;;;;25.41;34.24;99889.50;5071754;28;1934;-56
2022/04/28 13:11:32;;;;;;;;;;;;;;;25.57;35.22;99901.44;5072478;28;830;-56
2022/04/28 13:14:00;;;;;;;;;;;;;;;25.71;33.04;99897.66;5071972;28;896;-56
2022/04/28 13:16:28;;;;;;;;;;;;;;;25.61;33.83;99888.59;5071758;28;917;-56
2022/04/28 13:18:55;;;;;;;;;;;;;;;25.46;33.21;99891.56;5071850;28;876;-56
2022/04/28 13:21:22;;;;;;;;;;;;;;;25.26;35.03;99892.47;5071827;28;861;-55
2022/04/28 13:23:50;;;;;;;;;;;;;;;24.90;35.32;99891.13;5071652;28;873;-55
2022/04/28 13:26:18;;;;;;;;;;;;;;;24.57;34.56;99891.56;5071347;28;1179;-55
2022/04/28 13:28:45;;;;;;;;;;;;;;;24.28;34.38;99886.81;5071654;28;1981;-55
2022/04/28 13:31:12;;;;;;;;;;;;;;;24.07;35.59;99881.22;5071608;28;798;-56
2022/04/28 13:33:39;;;;;;;;;;;;;;;23.79;37.17;99890.09;5053520;28;1492;-56
2022/04/28 13:36:07;;;;;;;;;;;;;;;23.92;37.26;99888.94;5071551;28;814;-56
2022/04/28 13:38:34;;;;;;;;;;;;;;;23.98;36.13;99887.78;5071520;28;834;-56
2022/04/28 13:41:02;;;;;;;;;;;;;;;24.02;37.22;99893.19;5071460;28;865;-55
2022/04/28 13:43:31;;;;;;;;;;;;;;;24.10;36.94;99897.16;5071442;28;869;-55
2022/04/28 13:46:06;;;;;;;;;;;;;;;24.07;37.12;99894.53;5071463;28;941;-55
2022/04/28 13:48:33;;;;;;;;;;;;;;;24.13;36.63;99899.00;5053340;28;1886;-56
2022/04/28 13:51:00;;;;;;;;;;;;;;;24.02;37.40;99901.66;5071431;28;806;-55
2022/04/28 13:53:30;;;;;;;;;;;;;;;24.07;37.25;99898.16;5071287;28;892;-55
2022/04/28 13:56:00;;;;;;;;;;;;;;;23.82;36.20;99900.38;5071508;28;904;-56
2022/04/28 13:58:26;;;;;;;;;;;;;;;23.88;37.14;99902.53;5071581;28;889;-55
2022/04/28 14:00:53;;;;;;;;;;;;;;;24.21;36.77;99899.34;5073690;28;865;-55
2022/04/28 14:03:23;;;;;;;;;;;;;;;23.84;36.19;99902.72;5075555;28;933;-56
2022/04/28 14:05:51;;;;;;;;;;;;;;;23.72;36.15;99901.75;5075196;28;810;-55
2022/04/28 14:08:18;;;;;;;;;;;;;;;23.37;36.58;99904.56;5075121;28;1894;-55
2022/04/28 14:10:45;;;;;;;;;;;;;;;23.34;38.16;99906.34;5075390;28;944;-56
2022/04/28 14:13:12;;;;;;;;;;;;;;;23.34;37.16;99902.72;5075185;28;893;-55
2022/04/28 14:15:39;;;;;;;;;;;;;;;23.16;38.36;99904.50;5075203;28;869;-56
2022/04/28 14:18:06;;;;;;;;;;;;;;;23.08;38.23;99896.91;5075006;28;881;-55